Date,TemperatureHighF,TemperatureAvgF,TemperatureLowF,DewpointHighF,DewpointAvgF,DewpointLowF,HumidityHigh,HumidityAvg,HumidityLow,PressureMaxIn,PressureMinIn,WindSpeedMaxMPH,WindSpeedAvgMPH,GustSpeedMaxMPH,PrecipitationSumIn
2013-1-1,37,30,18,27,19,7,75,63,55,29.91,29.75,10,2,13,0.00
2013-1-2,35,21,13,18,10,5,71,62,50,30.06,29.89,9,2,12,0.00
2013-1-3,29,17,6,11,4,-5,64,55,40,30.10,29.97,7,1,11,0.00
2013-1-4,42,28,20,27,18,11,76,67,55,29.98,29.83,10,1,10,0.18
2013-1-5,46,32,26,27,20,16,70,61,46,30.23,29.87,10,1,13,0.18
2013-1-6,44,33,27,32,26,17,86,75,62,30.19,29.92,5,0,6,1.34
2013-1-7,44,33,28,32,23,16,83,68,50,30.37,29.96,9,1,11,0.00
2013-1-8,48,36,28,34,27,17,82,69,52,30.36,30.26,8,1,11,0.00
2013-1-9,44,37,29,35,31,25,87,79,61,30.35,30.02,8,1,11,0.00
2013-1-10,48,39,31,33,25,20,77,58,44,30.49,30.08,10,3,15,0.00
2013-1-11,40,34,27,37,26,20,91,75,66,30.49,30.15,9,1,15,0.00
2013-1-12,47,42,38,44,40,36,92,90,88,30.16,30.08,6,0,11,0.00
2013-1-13,52,46,42,49,43,40,92,91,87,30.13,30.00,4,0,8,0.00
2013-1-14,59,46,36,53,40,30,93,78,63,30.24,29.97,8,2,10,0.00
2013-1-15,42,36,32,33,29,26,87,77,66,30.29,30.18,4,0,6,0.00
2013-1-16,34,33,31,31,29,26,90,85,73,30.20,29.76,0,0,0,0.00
2013-1-17,49,34,29,38,28,19,91,77,61,30.06,29.83,9,2,13,0.39
2013-1-18,35,23,18,19,7,1,63,50,34,30.43,29.98,11,4,15,0.02
2013-1-19,48,36,20,33,25,6,76,64,46,30.37,29.89,7,2,11,0.00
2013-1-20,60,41,27,36,27,10,77,59,39,29.92,29.59,12,4,14,0.00
2013-1-21,31,25,19,20,12,7,81,59,44,30.06,29.76,10,1,10,0.00
2013-1-22,31,19,10,19,6,-4,83,58,34,30.05,29.72,10,2,16,0.00
2013-1-23,26,12,6,5,-4,-7,59,49,39,30.11,30.03,10,3,13,0.00
2013-1-24,22,10,2,-1,-6,-10,59,47,35,30.21,30.05,9,3,14,0.00
2013-1-25,24,16,8,8,-1,-7,66,47,36,30.28,30.00,8,2,14,0.00
2013-1-26,34,17,10,15,5,0,76,60,43,30.22,29.95,10,2,11,0.00
2013-1-27,34,20,10,10,3,-2,65,49,34,30.42,30.22,9,2,11,0.00
2013-1-28,32,26,19,28,14,0,86,60,39,30.42,29.96,4,0,4,0.00
2013-1-29,38,33,29,33,29,25,88,85,78,30.15,29.96,4,0,6,0.00
2013-2-3,34,25,19,21,16,12,78,68,55,30.01,29.71,5,0,5,0.00
2013-2-4,36,23,18,14,10,5,75,58,40,29.91,29.71,7,1,12,0.00
2013-2-5,27,24,22,20,15,7,81,67,50,29.98,29.88,0,0,0,0.00
2013-2-6,48,30,23,31,19,5,84,66,44,30.27,29.88,8,1,9,0.00
2013-2-7,36,25,17,15,9,4,60,50,40,30.47,30.27,12,0,22,0.00
2013-2-8,32,28,22,29,23,9,91,80,56,30.41,29.45,17,4,33,9.66
2013-2-9,25,20,13,21,16,6,89,84,75,30.17,29.48,11,7,20,0.00
2013-2-10,34,20,9,23,12,4,79,70,57,30.37,30.17,8,1,9,0.00
2013-2-11,45,36,21,43,32,13,92,85,70,30.31,29.64,11,2,18,0.00
2013-2-12,47,40,34,38,29,24,92,67,51,29.88,29.62,10,3,14,0.00
2013-2-13,55,36,30,33,24,20,70,61,43,29.86,29.65,8,1,8,0.00
2013-2-14,55,35,26,32,24,21,85,66,42,29.97,29.67,6,0,8,0.00
2013-2-15,56,39,31,40,32,26,90,78,55,29.99,29.90,8,1,10,0.00
2013-2-16,38,34,29,34,29,22,87,82,73,29.90,29.64,8,2,11,0.00
2013-2-17,29,22,14,22,10,0,84,61,42,29.72,29.42,11,6,18,0.00
2013-2-18,40,21,12,10,2,-1,57,45,29,30.15,29.72,10,5,13,0.00
2013-2-19,49,37,22,41,27,4,90,67,45,30.16,29.59,10,2,13,0.00
2013-2-20,46,31,23,38,19,9,90,62,38,29.80,29.57,8,4,13,0.00
2013-2-21,45,27,21,18,13,11,65,56,34,30.18,29.80,23,5,58,0.00
2013-2-22,55,32,22,32,20,12,74,62,40,30.33,30.18,9,2,11,0.00
2013-2-23,38,34,31,31,28,22,89,79,69,30.28,29.82,8,2,14,0.00
2013-2-24,37,34,32,34,31,29,91,90,88,29.85,29.65,11,4,16,0.00
2013-2-25,46,35,29,36,30,26,91,81,68,30.21,29.85,8,1,10,0.00
2013-2-26,45,37,33,34,28,24,82,73,55,30.28,30.06,7,1,9,0.00
2013-2-27,42,38,34,40,36,28,92,90,78,30.06,29.56,19,3,22,0.00
2013-2-28,59,40,34,45,36,31,92,86,59,29.62,29.51,2,0,2,0.00
2013-3-1,65,39,32,39,29,24,90,70,38,29.67,29.52,8,2,11,0.00
2013-3-2,41,36,32,28,26,23,74,67,59,29.67,29.61,7,1,11,0.00
2013-3-3,43,34,29,27,24,21,81,68,53,29.63,29.56,7,1,10,0.00
2013-3-4,49,32,25,30,21,18,81,65,45,29.74,29.60,12,5,14,0.00
2013-3-5,62,36,25,35,24,18,75,63,36,30.03,29.74,10,2,11,0.00
2013-3-6,43,36,32,35,31,25,88,81,70,30.00,29.92,11,4,19,0.00
2013-3-7,39,33,30,30,28,25,87,80,68,29.96,29.89,14,8,19,0.00
2013-3-8,34,31,29,30,28,25,89,85,76,30.09,29.88,9,6,57,0.00
2013-3-9,69,40,27,35,24,18,75,55,26,30.29,30.08,9,4,14,0.00
2013-3-10,75,39,26,43,28,22,85,69,32,30.35,30.27,7,1,7,0.00
2013-3-11,64,43,34,44,36,29,87,77,49,30.29,30.12,9,2,10,0.00
2013-3-12,56,51,43,51,47,39,93,87,76,30.12,29.71,16,6,29,0.00
2013-3-13,68,43,33,47,31,21,92,65,33,29.78,29.70,9,2,11,0.00
2013-3-14,45,31,25,23,17,10,71,55,36,29.82,29.71,9,3,14,0.00
2013-3-15,50,32,22,25,16,9,74,53,30,29.85,29.65,8,3,11,0.00
2013-3-16,48,35,27,26,18,13,74,51,32,29.84,29.68,7,1,9,0.00
2013-3-17,48,32,24,22,14,6,71,48,28,30.25,29.84,11,2,15,0.00
2013-3-18,53,30,19,23,11,3,77,46,25,30.39,30.13,9,2,13,0.00
2013-3-19,43,33,29,38,29,23,89,85,78,30.13,29.57,11,2,14,0.00
2013-3-20,53,35,25,28,22,15,89,63,34,29.77,29.67,9,2,12,0.00
2013-3-21,55,33,29,31,22,16,77,62,40,29.79,29.58,9,1,9,0.00
2013-3-22,50,33,23,27,18,12,72,54,37,29.76,29.61,8,3,13,0.00
2013-3-23,61,37,28,29,20,16,72,54,30,29.80,29.67,9,4,15,0.00
2013-3-24,69,39,28,34,22,16,69,52,27,29.83,29.69,8,2,10,0.00
2013-3-25,47,37,31,32,26,23,80,66,45,29.74,29.43,8,3,13,0.00
2013-3-26,56,39,33,34,26,18,76,61,43,29.78,29.49,7,2,10,0.00
2013-3-27,69,41,29,35,24,17,63,50,26,29.85,29.75,9,2,11,0.00
2013-3-28,54,43,36,34,30,26,78,61,44,30.01,29.84,8,2,9,0.00
2013-3-29,75,47,35,40,31,25,78,56,27,30.04,29.96,8,1,8,0.00
2013-3-30,79,50,36,35,26,16,66,42,19,30.08,29.98,8,1,11,0.00
2013-3-31,61,47,35,40,26,-100,85,47,29,30.10,29.66,9,3,15,0.00
2013-4-1,74,47,33,50,38,19,89,74,38,29.80,29.54,12,3,19,0.00
2013-4-2,52,35,26,22,15,9,66,46,24,29.95,29.80,7,2,11,0.00
2013-4-3,64,38,27,24,14,9,55,40,20,30.17,29.94,12,4,14,0.00
2013-4-4,76,41,26,31,20,11,74,46,18,30.30,30.06,6,1,8,0.00
2013-4-5,82,49,36,42,29,16,76,52,17,30.06,29.63,8,2,14,0.00
2013-4-6,75,44,31,27,17,8,61,37,15,30.29,29.87,11,3,11,0.00
2013-4-7,64,44,32,41,30,16,81,58,35,30.29,30.01,10,3,16,0.00
2013-4-8,95,58,42,48,41,34,89,60,20,30.06,29.95,8,1,9,0.00
2013-4-9,95,62,46,55,44,36,89,59,23,30.04,29.86,9,2,14,0.00
2013-4-10,87,55,45,58,45,40,87,71,37,29.98,29.83,9,2,14,0.00
2013-4-11,72,52,45,51,44,35,90,75,46,30.08,29.80,7,1,11,0.00
2013-4-12,45,42,38,36,33,30,80,71,63,30.09,29.94,10,2,17,0.00
2013-4-13,53,48,45,35,34,33,62,56,47,29.92,29.84,0,0,0,0.00
2013-4-14,62,47,38,39,32,22,79,59,36,30.20,29.91,7,2,11,0.00
2013-4-15,77,49,34,41,31,22,74,52,27,30.37,30.19,6,1,8,0.06
2013-4-16,79,52,38,50,42,33,84,69,35,30.37,30.11,8,4,14,0.00
2013-4-17,97,61,44,51,43,32,87,56,20,30.30,30.08,9,2,9,0.00
2013-4-18,69,52,40,44,36,30,78,58,30,30.37,30.13,11,3,15,0.00
2013-4-19,73,59,51,61,55,45,92,86,67,30.13,29.75,15,4,16,0.00
2013-4-20,68,53,44,53,39,27,93,62,36,30.21,29.67,8,2,10,0.00
2013-4-21,82,47,31,38,25,19,64,46,21,30.62,30.21,8,3,11,0.00
2013-4-22,80,47,34,40,30,26,75,56,23,30.66,30.51,12,2,12,0.00
2013-4-23,44,41,37,39,35,28,87,81,68,30.52,30.03,9,5,14,0.00
2013-4-24,100,56,41,54,43,37,88,68,20,30.05,29.84,8,3,12,0.00
2013-4-25,90,57,43,49,37,19,90,54,19,30.24,29.86,9,2,10,0.06
2013-4-26,85,54,40,44,32,22,74,45,24,30.38,30.24,8,2,11,0.00
2013-4-27,80,52,38,47,38,33,84,62,31,30.38,30.28,9,1,9,0.00
2013-4-28,90,56,41,44,36,25,82,52,19,30.31,30.21,9,1,10,0.00
2013-4-29,82,56,47,46,37,27,80,53,24,30.26,30.20,8,2,13,0.00
2013-4-30,97,60,45,45,33,25,62,39,15,30.33,30.22,9,2,9,0.00
2013-5-1,102,60,40,53,37,24,71,45,20,30.45,30.32,8,1,10,0.00
2013-5-2,101,62,45,55,42,33,78,53,20,30.44,30.31,9,2,11,0.00
2013-5-3,76,51,41,46,37,33,76,60,34,30.44,30.34,8,2,8,0.00
2013-5-4,96,57,42,51,37,23,78,52,20,30.34,30.23,8,2,10,0.00
2013-5-5,97,55,37,53,39,30,82,60,21,30.29,30.19,8,2,10,0.00
2013-5-6,103,60,44,57,45,38,79,61,22,30.26,30.13,6,0,8,0.00
2013-5-7,82,63,48,59,50,42,82,66,45,30.16,30.09,10,2,11,0.00
2013-5-8,71,61,54,62,56,51,91,85,71,30.15,30.03,11,3,21,0.00
2013-5-11,60,60,60,57,57,57,91,90,89,29.76,29.73,5,0,8,0.00
2013-5-12,94,67,50,64,49,33,90,54,34,29.82,29.59,6,1,8,0.00
2013-5-13,82,52,41,43,33,28,68,49,24,30.02,29.83,7,1,9,0.00
2013-5-14,72,49,38,40,31,27,70,52,30,30.04,29.97,8,1,9,0.00
2013-5-15,74,52,41,50,42,28,86,70,33,30.06,29.69,11,2,16,0.00
2013-5-16,109,60,49,58,29,-100,90,60,19,29.80,29.67,8,1,8,0.00
2013-5-17,95,60,51,53,37,-100,71,54,24,30.19,29.80,8,1,8,0.00
2013-5-18,73,60,50,48,46,41,77,61,40,30.29,30.20,0,0,4,0.00
2013-5-19,72,56,49,55,49,44,90,78,54,30.34,30.21,11,1,14,0.00
2013-5-20,105,68,55,74,60,52,92,79,38,30.20,29.93,8,0,11,0.00
2013-5-21,106,72,55,76,63,51,90,76,38,29.97,29.83,6,1,12,0.00
2013-5-22,66,63,55,61,58,51,89,86,83,29.93,29.89,0,0,3,0.00
2013-5-23,77,65,62,69,61,59,91,88,77,29.90,29.87,7,2,9,0.00
2013-5-24,73,68,63,68,64,61,93,88,85,29.71,29.68,2,0,2,0.00
2013-5-26,64,53,45,49,43,40,81,70,55,30.12,29.88,7,2,9,0.00
2013-5-27,90,64,44,54,44,39,85,53,26,30.16,30.08,7,1,8,0.00
2013-5-28,83,61,47,54,47,40,84,63,36,30.21,30.16,7,0,10,0.00
2013-5-29,89,65,56,72,59,52,91,83,55,30.16,30.00,9,1,10,0.00
2013-5-30,105,79,62,79,68,59,92,71,41,30.11,30.03,4,0,6,0.00
2013-5-31,104,79,67,75,66,59,84,66,37,30.10,29.98,8,0,8,0.00
2013-6-1,70,68,66,61,61,60,82,78,72,30.01,29.98,0,0,0,0.00
2013-6-2,76,68,65,65,61,60,85,78,68,29.83,29.80,9,2,9,0.00
2013-6-3,82,67,63,72,63,60,92,88,72,29.84,29.77,6,0,7,0.00
2013-6-4,92,63,50,59,49,42,88,61,31,30.07,29.84,8,1,10,0.00
2013-6-5,98,63,52,63,49,44,81,62,30,30.18,30.06,8,0,9,0.00
2013-6-6,77,61,53,59,52,46,87,73,51,30.17,30.07,9,1,11,0.00
2013-6-7,59,57,55,57,54,52,93,90,85,30.07,29.80,9,1,9,0.04
2013-6-8,84,73,65,69,64,61,89,74,58,29.97,29.82,5,0,18,0.04
2013-6-9,92,70,58,68,58,54,87,69,42,30.16,30.04,6,0,7,0.00
2013-6-10,70,64,58,62,58,53,91,80,71,30.17,29.95,8,1,8,0.00
2013-6-11,77,63,58,68,59,55,92,89,74,29.94,29.57,4,0,9,0.00
2013-6-12,71,64,58,59,56,52,91,74,63,29.83,29.64,8,2,11,0.06
2013-6-13,60,57,53,56,53,49,91,87,79,29.83,29.64,6,0,7,0.06
2013-6-14,68,63,56,59,56,53,91,79,72,29.78,29.70,7,1,8,9.99
2013-6-15,79,68,57,58,53,50,87,60,43,29.95,29.89,3,0,6,0.00
2013-6-16,78,66,55,62,56,48,85,71,53,29.96,29.75,9,0,9,0.04
2013-6-17,90,70,60,69,62,57,89,77,49,29.91,29.80,7,0,9,0.04
2013-6-18,87,66,59,69,60,56,91,83,51,29.93,29.83,8,1,9,0.00
2013-6-19,81,62,54,64,56,51,93,79,52,30.13,29.87,6,0,9,0.00
2013-6-20,89,64,55,63,55,52,88,75,38,30.25,30.13,3,0,8,0.00
2013-6-22,87,74,64,65,59,55,73,61,45,30.24,30.14,6,1,9,0.00
2013-6-23,90,72,62,71,64,55,88,77,46,30.18,30.05,7,0,8,0.00
2013-6-24,96,77,67,76,69,62,91,79,48,30.06,29.91,0,0,5,0.00
2013-6-25,90,75,65,74,67,62,91,78,52,29.96,29.76,2,0,7,0.00
2013-6-26,87,75,69,73,69,66,90,81,59,29.84,29.75,1,0,4,0.00
2013-6-27,78,71,68,71,67,66,92,88,78,29.84,29.71,8,1,10,0.00
2013-6-28,81,72,67,74,67,64,92,84,71,29.71,29.51,9,2,11,0.00
2013-6-29,83,75,70,72,67,66,88,78,61,29.73,29.61,9,2,9,0.00
2013-6-30,84,75,70,74,69,66,91,82,71,29.93,29.73,8,1,8,0.00
2013-7-1,81,80,79,74,73,73,81,80,79,30.01,30.00,8,2,8,0.00
2013-7-2,79,77,76,72,71,70,82,81,79,30.15,30.14,6,1,6,0.00
2013-7-3,89,86,81,76,74,73,78,70,60,30.22,30.18,0,0,4,0.00
2013-7-7,78,77,76,72,71,71,85,84,81,29.96,29.93,0,0,0,0.00
2013-7-8,91,77,72,75,69,-100,89,79,56,30.03,29.93,4,0,7,0.00
2013-7-9,80,72,69,72,68,64,91,86,72,30.08,30.01,8,1,10,0.00
2013-7-10,86,78,74,75,72,71,90,83,67,29.96,29.81,6,1,10,0.00
2013-7-11,83,80,78,76,74,72,84,81,79,29.85,29.84,0,0,0,0.00
2013-7-12,82,72,67,69,63,59,82,73,62,30.15,30.03,7,1,7,0.00
2013-7-13,81,72,65,74,68,61,91,86,78,30.28,30.15,4,0,7,0.00
2013-7-14,94,81,74,77,73,70,92,78,53,30.31,30.21,4,0,4,0.00
2013-7-15,94,78,72,77,72,69,91,82,52,30.22,30.11,6,0,7,0.00
2013-7-16,94,79,71,76,70,67,87,75,54,30.16,30.11,0,0,6,0.00
2013-7-17,93,79,71,76,70,67,87,76,55,30.18,30.04,3,0,7,0.00
2013-7-18,99,80,73,78,71,68,85,75,45,30.05,29.95,2,0,5,0.00
2013-7-19,97,83,76,79,75,72,88,77,52,29.97,29.77,4,0,7,0.00
2013-7-20,92,79,74,78,72,-100,89,80,54,29.83,29.69,3,0,7,0.00
2013-7-21,89,73,65,72,65,60,90,78,53,29.98,29.83,3,0,6,0.00
2013-7-22,87,73,67,72,67,64,91,82,60,29.99,29.86,7,1,9,0.00
2013-7-23,87,74,70,77,69,67,91,86,67,29.87,29.56,9,1,9,0.00
2013-7-24,86,76,68,75,68,61,92,77,58,29.91,29.61,4,0,7,0.00
2013-7-25,68,61,57,61,55,51,92,82,72,30.06,29.91,8,1,8,0.00
2013-7-27,85,74,66,70,65,61,92,74,51,30.06,29.99,7,1,8,0.00
2013-7-28,90,73,66,72,66,62,91,79,50,30.01,29.96,7,0,7,0.00
2013-7-29,89,73,67,73,67,63,90,82,58,30.05,29.96,6,0,8,0.00
2013-7-30,84,68,61,65,59,56,85,73,47,30.11,30.05,6,0,7,0.00
2013-7-31,84,69,60,66,59,54,82,72,48,30.13,30.05,0,0,6,0.00
2013-8-1,83,68,64,68,62,59,90,81,52,30.05,29.87,8,1,9,0.00
2013-8-2,86,71,64,71,64,61,92,80,50,29.89,29.79,4,0,7,0.00
2013-8-3,79,69,63,68,63,59,89,82,67,29.88,29.80,6,0,6,0.00
2013-8-4,83,65,57,64,58,53,90,78,47,29.90,29.80,5,0,9,0.00
2013-8-5,78,62,54,56,51,48,85,68,39,30.04,29.90,7,0,8,0.00
2013-8-6,79,63,53,58,52,47,82,68,42,30.14,30.03,6,0,6,0.00
2013-8-7,79,66,59,62,57,55,89,75,46,30.18,30.11,8,1,9,0.00
2013-8-8,80,70,64,72,65,59,90,85,74,30.11,30.03,8,2,11,0.00
2013-8-9,71,71,71,68,68,68,90,90,90,30.04,30.04,0,0,6,0.00
2013-8-10,85,72,63,67,61,52,94,69,53,30.02,29.92,6,0,7,0.00
2013-8-11,81,64,55,61,54,49,82,69,44,30.09,30.01,6,0,6,0.00
2013-8-16,81,63,56,62,49,-100,86,69,43,30.19,30.11,0,0,4,0.00
2013-8-17,84,67,57,64,57,52,85,72,43,30.27,30.19,0,0,2,0.00
2013-8-18,82,66,61,65,55,-100,85,72,47,30.27,30.10,1,0,2,0.00
2013-8-19,83,62,59,67,41,-100,88,77,58,30.10,29.98,3,0,4,0.00
2013-8-20,88,68,62,67,58,-100,89,76,44,30.11,30.00,0,0,2,0.00
2013-8-21,91,72,64,70,63,59,85,73,44,30.15,30.06,0,0,0,0.00
2013-8-22,81,72,67,73,68,62,91,87,77,30.06,29.87,0,0,5,0.00
2013-8-23,83,72,63,66,62,57,88,72,51,30.09,29.91,0,0,6,0.00
2013-8-24,83,64,54,61,53,49,84,68,37,30.32,30.10,0,0,2,0.00
2013-8-25,85,64,54,62,51,-100,87,68,35,30.36,30.20,0,0,2,0.00
2013-8-26,83,68,64,66,61,56,88,77,56,30.21,29.91,4,0,5,0.00
2013-8-27,68,67,67,65,64,64,92,91,89,29.91,29.82,0,0,0,0.00
2013-8-28,85,74,67,70,67,63,89,78,61,29.92,29.85,4,0,7,0.00
2013-8-29,70,67,65,65,63,60,90,86,82,30.03,29.92,4,1,6,0.00
2013-8-30,81,73,68,69,66,65,90,81,64,29.94,29.86,4,0,5,0.00
2013-8-31,80,76,74,73,71,70,87,83,79,29.84,29.81,6,0,6,0.00
2013-9-4,83,69,61,62,59,57,92,72,49,29.92,29.83,0,0,4,0.00
2013-9-5,77,65,54,65,55,46,77,69,60,30.11,29.94,4,0,5,0.00
2013-9-6,71,56,47,51,46,42,82,69,46,30.22,30.11,0,0,7,0.00
2013-9-7,77,60,50,56,50,44,83,71,45,30.10,29.89,0,0,3,0.00
2013-9-8,77,63,54,64,51,-100,90,70,51,30.06,29.77,6,1,11,0.00
2013-9-9,69,56,46,50,45,40,82,68,48,30.23,30.07,4,0,6,0.00
2013-9-10,62,60,57,58,55,49,89,83,75,30.16,30.12,2,0,7,0.00
2013-9-11,95,82,72,78,74,68,91,77,58,30.10,29.99,2,0,7,0.00
2013-9-12,87,76,71,74,69,67,88,80,59,30.00,29.72,7,2,8,0.00
2013-9-13,81,72,64,70,64,58,91,76,67,29.70,29.60,0,0,4,0.00
2013-9-15,70,54,47,55,45,-100,89,76,51,30.16,30.06,0,0,0,0.00
2013-9-16,66,57,49,60,52,41,90,83,73,30.21,30.02,5,0,9,0.00
2013-9-17,65,50,40,45,40,36,86,70,48,30.39,30.22,6,0,7,0.00
2013-9-18,47,44,43,41,40,39,87,83,78,30.32,30.29,0,0,0,0.00
2013-9-19,77,61,49,58,50,45,87,71,45,30.16,30.05,0,0,3,0.00
2013-9-20,77,62,50,61,53,46,88,75,45,30.08,30.00,5,0,6,0.00
2013-9-21,75,65,56,64,59,53,91,83,66,30.03,29.79,9,2,12,0.00
2013-10-2,79,65,56,63,57,52,86,75,52,29.97,29.87,6,0,8,0.00
2013-10-3,80,64,55,58,52,48,81,66,39,30.08,29.98,0,0,1,0.00
2013-10-4,68,61,54,60,55,50,87,82,74,30.06,30.01,3,0,4,0.00
2013-10-5,73,62,57,63,57,54,92,86,69,30.10,30.03,0,0,4,0.00
2013-10-6,61,60,56,58,56,53,90,89,88,30.14,30.08,0,0,0,0.00
2013-10-8,66,57,50,52,45,39,87,64,47,30.33,30.15,3,0,7,0.00
2013-10-9,66,52,44,49,43,38,83,70,47,30.41,30.32,7,1,9,0.00
2013-10-10,68,55,47,56,49,42,87,81,66,30.32,30.14,5,0,7,0.00
2013-10-11,72,63,51,59,53,43,84,71,63,30.11,30.06,8,2,8,0.00
2013-10-12,73,57,51,57,50,43,84,77,55,30.32,30.10,6,1,9,0.00
2013-10-13,64,53,45,53,44,-100,87,77,66,30.40,30.31,5,0,8,0.00
2013-10-14,67,49,38,50,41,34,89,77,42,30.38,30.24,0,0,2,0.00
2013-10-15,73,56,46,55,47,43,88,74,48,30.25,30.14,7,0,8,0.00
2013-10-16,66,55,48,57,50,44,89,83,72,30.15,29.92,1,0,2,0.00
2013-10-17,74,61,53,63,56,50,91,85,69,29.91,29.76,2,0,5,0.00
2013-10-18,69,59,50,54,46,41,80,62,47,29.91,29.75,6,1,10,0.00
2013-10-19,68,57,46,47,44,38,81,63,45,29.96,29.75,6,1,8,0.00
2013-10-20,63,53,46,52,38,-100,88,62,38,30.02,29.70,8,1,9,0.00
2013-10-21,69,57,42,44,40,33,71,55,39,30.10,29.99,6,0,8,0.00
2013-10-22,70,58,45,53,47,41,86,70,47,29.99,29.71,2,0,6,0.00
2013-10-23,49,44,39,41,38,34,85,78,70,29.79,29.58,0,0,0,0.00
2013-10-24,53,43,35,36,31,26,84,64,42,29.90,29.66,9,1,9,0.00
2013-10-25,51,43,36,34,29,25,71,57,45,30.15,29.89,8,2,9,0.00
2013-10-26,54,44,34,37,31,26,79,61,43,30.15,29.87,7,1,9,0.00
2013-10-27,57,46,40,38,30,-100,80,57,44,30.06,29.81,8,1,10,0.00
2013-10-28,60,44,34,37,29,-100,76,60,41,30.29,30.06,7,1,9,0.00
2013-10-29,53,41,36,30,26,22,66,55,40,30.40,30.30,0,0,5,0.00
2013-10-30,54,44,36,41,35,24,78,71,60,30.34,30.18,0,0,0,0.00
2013-10-31,63,50,42,57,46,37,89,84,78,30.21,29.97,9,2,15,0.00
2013-11-1,62,61,60,55,54,54,80,79,77,29.55,29.52,6,1,6,0.00
2013-11-2,67,55,50,49,45,43,82,69,46,29.72,29.59,5,0,7,0.00
2013-11-3,52,42,31,44,30,-100,83,66,46,30.35,29.72,7,3,10,0.00
2013-11-4,45,34,26,23,19,16,68,56,38,30.65,30.37,8,1,11,0.00
2013-11-5,55,40,29,35,29,20,75,65,46,30.65,30.49,6,0,6,0.00
2013-11-6,62,50,40,49,42,34,89,74,51,30.47,30.08,7,1,8,0.00
2013-11-7,63,54,37,57,49,34,89,86,82,29.82,29.73,0,0,5,0.00
2013-11-11,53,44,37,34,30,27,74,59,44,30.11,29.90,9,2,11,0.00
2013-11-12,49,34,25,34,25,15,85,69,57,30.17,29.88,10,2,11,0.00
2013-11-13,37,27,21,19,14,10,72,58,42,30.27,30.17,6,1,10,0.00
2013-11-14,51,38,27,25,21,14,63,50,36,30.17,30.05,6,0,7,0.00
2013-11-15,59,47,39,36,29,17,79,51,30,30.21,30.12,6,0,6,0.00
2013-11-16,62,47,41,40,32,-100,83,60,43,30.30,30.18,6,0,8,0.00
2013-11-17,61,53,43,53,48,38,89,84,74,30.27,30.10,7,2,12,0.00
2013-11-20,42,32,26,20,16,12,63,52,36,30.57,30.24,6,1,8,0.00
2013-11-21,48,35,23,33,22,13,73,59,44,30.59,30.37,0,0,0,0.00
2013-11-22,49,45,41,46,40,33,90,83,73,30.36,30.00,0,0,0,0.00
2013-11-23,44,36,28,34,22,-100,75,59,45,29.92,29.80,8,2,11,0.00
2013-11-24,29,22,19,16,5,-1,64,48,33,30.18,29.82,17,5,21,0.00
2013-11-25,36,24,15,20,7,1,61,48,36,30.34,30.19,9,2,11,0.00
2013-11-26,42,36,31,36,24,18,87,62,46,30.29,29.94,5,0,13,0.00
2013-11-27,46,44,41,43,41,38,90,89,88,29.94,29.80,7,6,11,0.00
2013-11-28,37,28,23,23,15,11,73,58,44,30.41,29.79,7,3,11,0.00
2013-11-29,38,27,22,21,15,11,68,61,48,30.67,30.41,6,1,7,0.00
2013-11-30,38,25,15,23,12,-100,72,62,48,30.72,30.37,5,1,6,0.00
2013-12-1,45,38,32,41,33,24,88,82,72,30.37,30.01,5,1,7,0.00
2013-12-2,44,39,35,39,35,32,88,86,83,29.91,29.91,0,0,0,0.00
2013-12-3,50,41,34,39,33,28,82,73,62,29.93,29.83,5,1,6,0.00
2013-12-4,49,37,30,36,30,25,85,75,58,30.15,29.95,0,0,3,0.00
2013-12-5,44,42,39,40,36,31,85,81,74,30.15,30.13,6,2,6,0.00
2013-12-7,39,31,28,34,20,-100,89,72,69,30.42,30.20,6,1,8,0.00
2013-12-8,32,28,23,24,21,18,82,73,65,30.55,30.42,4,0,4,0.00
2013-12-9,35,30,26,32,26,19,90,85,69,30.42,30.03,5,1,7,0.00
2013-12-15,34,30,24,32,26,19,91,86,80,30.00,29.37,7,1,12,0.00
2013-12-16,31,24,16,21,14,6,85,66,48,30.15,29.73,6,0,6,0.00
2013-12-17,21,17,12,16,10,5,82,75,65,30.21,29.88,5,1,7,0.00
2013-12-18,34,26,20,24,18,15,84,74,60,30.08,29.83,6,1,7,0.00
2013-12-19,45,32,23,29,23,17,78,69,53,30.11,29.95,5,0,6,0.00
2013-12-20,50,42,35,37,32,26,78,69,58,30.09,29.93,4,0,7,0.00
2013-12-21,58,48,42,49,42,-100,91,83,70,29.98,29.88,4,0,7,0.00